sensor_id;sensor_type;location;lat;lon;timestamp;temperature;humidity
40828;DHT22;26549;50.918;5.338;2024-02-21T00:01:54;11.20;99.90
40828;DHT22;26549;50.918;5.338;2024-02-21T00:04:20;11.20;99.90
40828;DHT22;26549;50.918;5.338;2024-02-21T00:06:46;11.30;99.90
40828;DHT22;26549;50.918;5.338;2024-02-21T00:09:12;11.20;99.90
40828;DHT22;26549;50.918;5.338;2024-02-21T00:11:40;11.30;99.90
40828;DHT22;26549;50.918;5.338;2024-02-21T00:14:06;11.20;99.90
40828;DHT22;26549;50.918;5.338;2024-02-21T00:16:32;11.20;99.90
40828;DHT22;26549;50.918;5.338;2024-02-21T00:18:58;11.30;99.90
40828;DHT22;26549;50.918;5.338;2024-02-21T00:21:24;11.40;99.90
40828;DHT22;26549;50.918;5.338;2024-02-21T00:23:50;11.30;99.90
40828;DHT22;26549;50.918;5.338;2024-02-21T00:26:16;11.20;99.90
40828;DHT22;26549;50.918;5.338;2024-02-21T00:28:42;11.20;99.90
40828;DHT22;26549;50.918;5.338;2024-02-21T00:31:08;11.20;99.90
40828;DHT22;26549;50.918;5.338;2024-02-21T00:33:34;11.20;99.90
40828;DHT22;26549;50.918;5.338;2024-02-21T00:36:00;11.30;99.90
40828;DHT22;26549;50.918;5.338;2024-02-21T00:38:26;11.30;99.90
40828;DHT22;26549;50.918;5.338;2024-02-21T00:40:52;11.20;99.90
40828;DHT22;26549;50.918;5.338;2024-02-21T00:43:18;11.20;99.90
40828;DHT22;26549;50.918;5.338;2024-02-21T00:45:44;11.30;99.90
40828;DHT22;26549;50.918;5.338;2024-02-21T00:48:09;11.20;99.90
40828;DHT22;26549;50.918;5.338;2024-02-21T00:50:38;11.30;99.90
40828;DHT22;26549;50.918;5.338;2024-02-21T00:53:04;11.20;99.90
40828;DHT22;26549;50.918;5.338;2024-02-21T00:55:30;11.20;99.90
40828;DHT22;26549;50.918;5.338;2024-02-21T00:57:56;11.20;99.90
40828;DHT22;26549;50.918;5.338;2024-02-21T01:00:23;11.30;99.90
40828;DHT22;26549;50.918;5.338;2024-02-21T01:02:49;11.20;99.90
40828;DHT22;26549;50.918;5.338;2024-02-21T01:05:15;11.20;99.90
40828;DHT22;26549;50.918;5.338;2024-02-21T01:07:41;11.30;99.90
40828;DHT22;26549;50.918;5.338;2024-02-21T01:10:07;11.20;99.90
40828;DHT22;26549;50.918;5.338;2024-02-21T01:12:34;11.10;99.90
40828;DHT22;26549;50.918;5.338;2024-02-21T01:15:00;11.20;99.90
40828;DHT22;26549;50.918;5.338;2024-02-21T01:17:25;11.20;99.90
40828;DHT22;26549;50.918;5.338;2024-02-21T01:19:52;11.40;99.90
40828;DHT22;26549;50.918;5.338;2024-02-21T01:22:18;11.20;99.90
40828;DHT22;26549;50.918;5.338;2024-02-21T01:24:44;11.10;99.90
40828;DHT22;26549;50.918;5.338;2024-02-21T01:27:10;11.20;99.90
40828;DHT22;26549;50.918;5.338;2024-02-21T01:29:36;11.10;99.90
40828;DHT22;26549;50.918;5.338;2024-02-21T01:32:02;11.20;99.90
40828;DHT22;26549;50.918;5.338;2024-02-21T01:34:28;11.20;99.90
40828;DHT22;26549;50.918;5.338;2024-02-21T01:36:54;11.10;99.90
40828;DHT22;26549;50.918;5.338;2024-02-21T01:39:20;11.20;99.90
40828;DHT22;26549;50.918;5.338;2024-02-21T01:41:45;11.20;99.90
40828;DHT22;26549;50.918;5.338;2024-02-21T01:44:11;11.00;99.90
40828;DHT22;26549;50.918;5.338;2024-02-21T01:46:38;11.20;99.90
40828;DHT22;26549;50.918;5.338;2024-02-21T01:49:04;11.20;99.90
40828;DHT22;26549;50.918;5.338;2024-02-21T01:51:30;11.10;99.90
40828;DHT22;26549;50.918;5.338;2024-02-21T01:53:57;11.20;99.90
40828;DHT22;26549;50.918;5.338;2024-02-21T01:56:24;11.10;99.90
40828;DHT22;26549;50.918;5.338;2024-02-21T01:58:51;11.10;99.90
40828;DHT22;26549;50.918;5.338;2024-02-21T02:01:17;11.10;99.90
40828;DHT22;26549;50.918;5.338;2024-02-21T02:03:45;11.10;99.90
40828;DHT22;26549;50.918;5.338;2024-02-21T02:06:14;11.00;99.90
40828;DHT22;26549;50.918;5.338;2024-02-21T02:08:40;11.10;99.90
40828;DHT22;26549;50.918;5.338;2024-02-21T02:11:06;11.20;99.90
40828;DHT22;26549;50.918;5.338;2024-02-21T02:13:32;10.90;99.90
40828;DHT22;26549;50.918;5.338;2024-02-21T02:15:58;10.90;99.90
40828;DHT22;26549;50.918;5.338;2024-02-21T02:18:24;10.90;99.90
40828;DHT22;26549;50.918;5.338;2024-02-21T02:20:50;11.00;99.90
40828;DHT22;26549;50.918;5.338;2024-02-21T02:23:25;11.00;99.90
40828;DHT22;26549;50.918;5.338;2024-02-21T02:25:52;11.00;99.90
40828;DHT22;26549;50.918;5.338;2024-02-21T02:28:18;11.00;99.90
40828;DHT22;26549;50.918;5.338;2024-02-21T02:30:45;11.00;99.90
40828;DHT22;26549;50.918;5.338;2024-02-21T02:33:12;11.10;99.90
40828;DHT22;26549;50.918;5.338;2024-02-21T02:35:38;11.10;99.90
40828;DHT22;26549;50.918;5.338;2024-02-21T02:38:05;11.00;99.90
40828;DHT22;26549;50.918;5.338;2024-02-21T02:40:35;11.10;99.90
40828;DHT22;26549;50.918;5.338;2024-02-21T02:43:01;11.20;99.90
40828;DHT22;26549;50.918;5.338;2024-02-21T02:45:27;11.10;99.90
40828;DHT22;26549;50.918;5.338;2024-02-21T02:47:53;11.10;99.90
40828;DHT22;26549;50.918;5.338;2024-02-21T02:50:28;11.10;99.90
40828;DHT22;26549;50.918;5.338;2024-02-21T02:52:54;11.10;99.90
40828;DHT22;26549;50.918;5.338;2024-02-21T02:55:21;11.00;99.90
40828;DHT22;26549;50.918;5.338;2024-02-21T02:57:47;11.10;99.90
40828;DHT22;26549;50.918;5.338;2024-02-21T03:00:14;11.00;99.90
40828;DHT22;26549;50.918;5.338;2024-02-21T03:02:41;11.00;99.90
40828;DHT22;26549;50.918;5.338;2024-02-21T03:05:16;11.00;99.90
40828;DHT22;26549;50.918;5.338;2024-02-21T03:07:43;11.00;99.90
40828;DHT22;26549;50.918;5.338;2024-02-21T03:10:09;11.00;99.90
40828;DHT22;26549;50.918;5.338;2024-02-21T03:12:36;11.10;99.90
40828;DHT22;26549;50.918;5.338;2024-02-21T03:15:03;10.90;99.90
40828;DHT22;26549;50.918;5.338;2024-02-21T03:17:29;11.10;99.90
40828;DHT22;26549;50.918;5.338;2024-02-21T03:19:55;11.00;99.90
40828;DHT22;26549;50.918;5.338;2024-02-21T03:22:22;10.90;99.90
40828;DHT22;26549;50.918;5.338;2024-02-21T03:24:48;11.00;99.90
40828;DHT22;26549;50.918;5.338;2024-02-21T03:27:14;10.80;99.90
40828;DHT22;26549;50.918;5.338;2024-02-21T03:29:40;10.80;99.90
40828;DHT22;26549;50.918;5.338;2024-02-21T03:32:06;10.90;99.90
40828;DHT22;26549;50.918;5.338;2024-02-21T03:34:33;10.80;99.90
40828;DHT22;26549;50.918;5.338;2024-02-21T03:36:59;10.70;99.90
40828;DHT22;26549;50.918;5.338;2024-02-21T03:39:25;10.80;99.90
40828;DHT22;26549;50.918;5.338;2024-02-21T03:41:51;11.00;99.90
40828;DHT22;26549;50.918;5.338;2024-02-21T03:44:17;10.90;99.90
40828;DHT22;26549;50.918;5.338;2024-02-21T03:46:43;10.90;99.90
40828;DHT22;26549;50.918;5.338;2024-02-21T03:49:09;10.80;99.90
40828;DHT22;26549;50.918;5.338;2024-02-21T03:51:35;10.90;99.90
40828;DHT22;26549;50.918;5.338;2024-02-21T03:54:01;10.90;99.90
40828;DHT22;26549;50.918;5.338;2024-02-21T03:56:27;10.90;99.90
40828;DHT22;26549;50.918;5.338;2024-02-21T03:58:53;10.80;99.90
40828;DHT22;26549;50.918;5.338;2024-02-21T04:01:19;10.90;99.90
40828;DHT22;26549;50.918;5.338;2024-02-21T04:03:45;10.80;99.90
40828;DHT22;26549;50.918;5.338;2024-02-21T04:06:11;10.90;99.90
40828;DHT22;26549;50.918;5.338;2024-02-21T04:08:38;10.80;99.90
40828;DHT22;26549;50.918;5.338;2024-02-21T04:11:04;10.80;99.90
40828;DHT22;26549;50.918;5.338;2024-02-21T04:13:30;10.80;99.90
40828;DHT22;26549;50.918;5.338;2024-02-21T04:15:56;10.80;99.90
40828;DHT22;26549;50.918;5.338;2024-02-21T04:18:22;10.80;99.90
40828;DHT22;26549;50.918;5.338;2024-02-21T04:20:51;10.70;99.90
40828;DHT22;26549;50.918;5.338;2024-02-21T04:23:17;10.70;99.90
40828;DHT22;26549;50.918;5.338;2024-02-21T04:25:43;10.80;99.90
40828;DHT22;26549;50.918;5.338;2024-02-21T04:28:09;10.70;99.90
40828;DHT22;26549;50.918;5.338;2024-02-21T04:30:35;10.70;99.90
40828;DHT22;26549;50.918;5.338;2024-02-21T04:33:01;10.80;99.90
40828;DHT22;26549;50.918;5.338;2024-02-21T04:35:27;10.90;99.90
40828;DHT22;26549;50.918;5.338;2024-02-21T04:37:55;10.90;99.90
40828;DHT22;26549;50.918;5.338;2024-02-21T04:40:21;10.90;99.90
40828;DHT22;26549;50.918;5.338;2024-02-21T04:42:47;10.80;99.90
40828;DHT22;26549;50.918;5.338;2024-02-21T04:45:13;10.90;99.90
40828;DHT22;26549;50.918;5.338;2024-02-21T04:47:39;10.80;99.90
40828;DHT22;26549;50.918;5.338;2024-02-21T04:50:05;10.80;99.90
40828;DHT22;26549;50.918;5.338;2024-02-21T04:52:31;10.80;99.90
40828;DHT22;26549;50.918;5.338;2024-02-21T04:54:58;10.80;99.90
40828;DHT22;26549;50.918;5.338;2024-02-21T04:57:24;10.70;99.90
40828;DHT22;26549;50.918;5.338;2024-02-21T04:59:51;10.80;99.90
40828;DHT22;26549;50.918;5.338;2024-02-21T05:02:18;10.70;99.90
40828;DHT22;26549;50.918;5.338;2024-02-21T05:04:45;10.80;99.90
40828;DHT22;26549;50.918;5.338;2024-02-21T05:07:11;10.70;99.90
40828;DHT22;26549;50.918;5.338;2024-02-21T05:09:37;10.70;99.90
40828;DHT22;26549;50.918;5.338;2024-02-21T05:12:03;10.70;99.90
40828;DHT22;26549;50.918;5.338;2024-02-21T05:14:29;10.70;99.90
40828;DHT22;26549;50.918;5.338;2024-02-21T05:16:58;10.60;99.90
40828;DHT22;26549;50.918;5.338;2024-02-21T05:19:24;10.60;99.90
40828;DHT22;26549;50.918;5.338;2024-02-21T05:21:50;10.60;99.90
40828;DHT22;26549;50.918;5.338;2024-02-21T05:24:16;10.70;99.90
40828;DHT22;26549;50.918;5.338;2024-02-21T05:26:42;10.70;99.90
40828;DHT22;26549;50.918;5.338;2024-02-21T05:29:08;10.80;99.90
40828;DHT22;26549;50.918;5.338;2024-02-21T05:34:19;10.80;99.90
40828;DHT22;26549;50.918;5.338;2024-02-21T05:36:46;10.70;99.90
40828;DHT22;26549;50.918;5.338;2024-02-21T05:39:13;10.70;99.90
40828;DHT22;26549;50.918;5.338;2024-02-21T05:41:38;10.70;99.90
40828;DHT22;26549;50.918;5.338;2024-02-21T05:44:05;10.70;99.90
40828;DHT22;26549;50.918;5.338;2024-02-21T05:46:31;10.60;99.90
40828;DHT22;26549;50.918;5.338;2024-02-21T05:48:57;10.70;99.90
40828;DHT22;26549;50.918;5.338;2024-02-21T05:51:25;10.70;99.90
40828;DHT22;26549;50.918;5.338;2024-02-21T05:53:51;10.70;99.90
40828;DHT22;26549;50.918;5.338;2024-02-21T05:56:17;10.70;99.90
40828;DHT22;26549;50.918;5.338;2024-02-21T05:58:43;10.70;99.90
40828;DHT22;26549;50.918;5.338;2024-02-21T06:01:10;10.80;99.90
40828;DHT22;26549;50.918;5.338;2024-02-21T06:03:36;10.70;99.90
40828;DHT22;26549;50.918;5.338;2024-02-21T06:06:02;10.60;99.90
40828;DHT22;26549;50.918;5.338;2024-02-21T06:08:28;10.60;99.90
40828;DHT22;26549;50.918;5.338;2024-02-21T06:10:54;10.70;99.90
40828;DHT22;26549;50.918;5.338;2024-02-21T06:13:21;10.50;99.90
40828;DHT22;26549;50.918;5.338;2024-02-21T06:15:47;10.50;99.90
40828;DHT22;26549;50.918;5.338;2024-02-21T06:18:18;10.40;99.90
40828;DHT22;26549;50.918;5.338;2024-02-21T06:20:44;10.40;99.90
40828;DHT22;26549;50.918;5.338;2024-02-21T06:23:16;10.40;99.90
40828;DHT22;26549;50.918;5.338;2024-02-21T06:25:42;10.30;99.90
40828;DHT22;26549;50.918;5.338;2024-02-21T06:28:09;10.30;99.90
40828;DHT22;26549;50.918;5.338;2024-02-21T06:30:35;10.20;99.90
40828;DHT22;26549;50.918;5.338;2024-02-21T06:33:01;10.30;99.90
40828;DHT22;26549;50.918;5.338;2024-02-21T06:35:28;10.40;99.90
40828;DHT22;26549;50.918;5.338;2024-02-21T06:37:57;10.40;99.90
40828;DHT22;26549;50.918;5.338;2024-02-21T06:40:23;10.40;99.90
40828;DHT22;26549;50.918;5.338;2024-02-21T06:42:50;10.40;99.90
40828;DHT22;26549;50.918;5.338;2024-02-21T06:45:16;10.30;99.90
40828;DHT22;26549;50.918;5.338;2024-02-21T06:47:43;10.40;99.90
40828;DHT22;26549;50.918;5.338;2024-02-21T06:50:11;10.30;99.90
40828;DHT22;26549;50.918;5.338;2024-02-21T06:52:37;10.20;99.90
40828;DHT22;26549;50.918;5.338;2024-02-21T06:55:04;10.10;99.90
40828;DHT22;26549;50.918;5.338;2024-02-21T06:57:30;10.20;99.90
40828;DHT22;26549;50.918;5.338;2024-02-21T06:59:56;10.20;99.90
40828;DHT22;26549;50.918;5.338;2024-02-21T07:02:21;10.20;99.90
40828;DHT22;26549;50.918;5.338;2024-02-21T07:04:47;10.20;99.90
40828;DHT22;26549;50.918;5.338;2024-02-21T07:07:13;10.10;99.90
40828;DHT22;26549;50.918;5.338;2024-02-21T07:09:45;10.20;99.90
40828;DHT22;26549;50.918;5.338;2024-02-21T07:12:15;10.30;99.90
40828;DHT22;26549;50.918;5.338;2024-02-21T07:14:41;10.20;99.90
40828;DHT22;26549;50.918;5.338;2024-02-21T07:17:07;10.20;99.90
40828;DHT22;26549;50.918;5.338;2024-02-21T07:19:34;10.10;99.90
40828;DHT22;26549;50.918;5.338;2024-02-21T07:22:01;10.10;99.90
40828;DHT22;26549;50.918;5.338;2024-02-21T07:24:27;10.10;99.90
40828;DHT22;26549;50.918;5.338;2024-02-21T07:26:56;10.00;99.90
40828;DHT22;26549;50.918;5.338;2024-02-21T07:29:22;10.10;99.90
40828;DHT22;26549;50.918;5.338;2024-02-21T07:31:48;10.10;99.90
40828;DHT22;26549;50.918;5.338;2024-02-21T07:34:16;10.00;99.90
40828;DHT22;26549;50.918;5.338;2024-02-21T07:36:42;10.00;99.90
40828;DHT22;26549;50.918;5.338;2024-02-21T07:39:10;10.10;99.90
40828;DHT22;26549;50.918;5.338;2024-02-21T07:41:38;10.10;99.90
40828;DHT22;26549;50.918;5.338;2024-02-21T07:44:08;10.10;99.90
40828;DHT22;26549;50.918;5.338;2024-02-21T07:46:34;10.10;99.90
40828;DHT22;26549;50.918;5.338;2024-02-21T07:49:02;10.00;99.90
40828;DHT22;26549;50.918;5.338;2024-02-21T07:51:28;10.00;99.90
40828;DHT22;26549;50.918;5.338;2024-02-21T07:53:54;10.10;99.90
40828;DHT22;26549;50.918;5.338;2024-02-21T07:56:22;10.10;99.90
40828;DHT22;26549;50.918;5.338;2024-02-21T07:58:49;10.20;99.90
40828;DHT22;26549;50.918;5.338;2024-02-21T08:01:18;10.10;99.90
40828;DHT22;26549;50.918;5.338;2024-02-21T08:03:49;10.20;99.90
40828;DHT22;26549;50.918;5.338;2024-02-21T08:06:15;10.20;99.90
40828;DHT22;26549;50.918;5.338;2024-02-21T08:08:44;10.20;99.90
40828;DHT22;26549;50.918;5.338;2024-02-21T08:11:13;10.20;99.90
40828;DHT22;26549;50.918;5.338;2024-02-21T08:13:40;10.20;99.90
40828;DHT22;26549;50.918;5.338;2024-02-21T08:16:06;10.30;99.90
40828;DHT22;26549;50.918;5.338;2024-02-21T08:18:32;10.30;99.90
40828;DHT22;26549;50.918;5.338;2024-02-21T08:21:04;10.40;99.90
40828;DHT22;26549;50.918;5.338;2024-02-21T08:23:29;10.40;99.90
40828;DHT22;26549;50.918;5.338;2024-02-21T08:25:56;10.40;99.90
40828;DHT22;26549;50.918;5.338;2024-02-21T08:28:22;10.40;99.90
40828;DHT22;26549;50.918;5.338;2024-02-21T08:30:50;10.50;99.90
40828;DHT22;26549;50.918;5.338;2024-02-21T08:33:19;10.50;99.90
40828;DHT22;26549;50.918;5.338;2024-02-21T08:35:51;10.50;99.90
40828;DHT22;26549;50.918;5.338;2024-02-21T08:38:18;10.50;99.90
40828;DHT22;26549;50.918;5.338;2024-02-21T08:40:44;10.60;99.90
40828;DHT22;26549;50.918;5.338;2024-02-21T08:43:10;10.70;99.90
40828;DHT22;26549;50.918;5.338;2024-02-21T08:45:37;10.70;99.90
40828;DHT22;26549;50.918;5.338;2024-02-21T08:48:03;10.70;99.90
40828;DHT22;26549;50.918;5.338;2024-02-21T08:50:29;10.80;99.90
40828;DHT22;26549;50.918;5.338;2024-02-21T08:52:55;10.70;99.90
40828;DHT22;26549;50.918;5.338;2024-02-21T08:55:21;10.60;99.90
40828;DHT22;26549;50.918;5.338;2024-02-21T08:57:47;10.60;99.90
40828;DHT22;26549;50.918;5.338;2024-02-21T09:00:13;10.70;99.90
40828;DHT22;26549;50.918;5.338;2024-02-21T09:02:43;10.70;99.90
40828;DHT22;26549;50.918;5.338;2024-02-21T09:05:09;10.80;99.90
40828;DHT22;26549;50.918;5.338;2024-02-21T09:07:35;10.90;99.90
40828;DHT22;26549;50.918;5.338;2024-02-21T09:10:00;10.80;99.90
40828;DHT22;26549;50.918;5.338;2024-02-21T09:12:27;10.80;99.90
40828;DHT22;26549;50.918;5.338;2024-02-21T09:14:56;10.80;99.90
40828;DHT22;26549;50.918;5.338;2024-02-21T09:17:25;11.00;99.90
40828;DHT22;26549;50.918;5.338;2024-02-21T09:19:51;11.00;99.90
40828;DHT22;26549;50.918;5.338;2024-02-21T09:22:18;10.90;99.90
40828;DHT22;26549;50.918;5.338;2024-02-21T09:24:46;11.10;99.90
40828;DHT22;26549;50.918;5.338;2024-02-21T09:27:14;11.10;99.90
40828;DHT22;26549;50.918;5.338;2024-02-21T09:29:40;11.10;99.90
40828;DHT22;26549;50.918;5.338;2024-02-21T09:32:08;11.20;99.90
40828;DHT22;26549;50.918;5.338;2024-02-21T09:34:34;11.20;99.90
40828;DHT22;26549;50.918;5.338;2024-02-21T09:37:00;11.20;99.90
40828;DHT22;26549;50.918;5.338;2024-02-21T09:39:25;11.10;99.90
40828;DHT22;26549;50.918;5.338;2024-02-21T09:41:55;11.10;99.90
40828;DHT22;26549;50.918;5.338;2024-02-21T09:44:24;11.20;99.90
40828;DHT22;26549;50.918;5.338;2024-02-21T09:46:56;11.30;99.90
40828;DHT22;26549;50.918;5.338;2024-02-21T09:49:32;11.40;99.90
40828;DHT22;26549;50.918;5.338;2024-02-21T09:52:05;11.30;99.90
40828;DHT22;26549;50.918;5.338;2024-02-21T09:54:35;11.30;99.90
40828;DHT22;26549;50.918;5.338;2024-02-21T09:57:03;11.40;99.90
40828;DHT22;26549;50.918;5.338;2024-02-21T09:59:31;11.50;99.90
40828;DHT22;26549;50.918;5.338;2024-02-21T10:01:59;11.40;99.90
40828;DHT22;26549;50.918;5.338;2024-02-21T10:04:29;11.40;99.90
40828;DHT22;26549;50.918;5.338;2024-02-21T10:06:55;11.50;99.90
40828;DHT22;26549;50.918;5.338;2024-02-21T10:09:26;11.50;99.90
40828;DHT22;26549;50.918;5.338;2024-02-21T10:12:07;11.60;99.90
40828;DHT22;26549;50.918;5.338;2024-02-21T10:14:33;11.70;99.90
40828;DHT22;26549;50.918;5.338;2024-02-21T10:16:59;11.70;99.90
40828;DHT22;26549;50.918;5.338;2024-02-21T10:19:27;11.90;99.90
40828;DHT22;26549;50.918;5.338;2024-02-21T10:22:08;11.90;99.90
40828;DHT22;26549;50.918;5.338;2024-02-21T10:24:37;12.00;99.90
40828;DHT22;26549;50.918;5.338;2024-02-21T10:27:07;12.00;99.90
40828;DHT22;26549;50.918;5.338;2024-02-21T10:29:38;12.10;99.90
40828;DHT22;26549;50.918;5.338;2024-02-21T10:32:12;12.00;99.90
40828;DHT22;26549;50.918;5.338;2024-02-21T10:34:39;12.00;99.90
40828;DHT22;26549;50.918;5.338;2024-02-21T10:37:10;11.90;99.90
40828;DHT22;26549;50.918;5.338;2024-02-21T10:39:38;12.00;99.90
40828;DHT22;26549;50.918;5.338;2024-02-21T10:42:07;12.10;99.90
40828;DHT22;26549;50.918;5.338;2024-02-21T10:44:39;11.90;99.90
40828;DHT22;26549;50.918;5.338;2024-02-21T10:47:13;12.00;99.90
40828;DHT22;26549;50.918;5.338;2024-02-21T10:49:41;12.00;99.90
40828;DHT22;26549;50.918;5.338;2024-02-21T10:57:13;12.10;99.90
40828;DHT22;26549;50.918;5.338;2024-02-21T10:59:40;12.20;99.90
40828;DHT22;26549;50.918;5.338;2024-02-21T11:02:08;12.20;99.90
40828;DHT22;26549;50.918;5.338;2024-02-21T11:04:34;12.20;99.90
40828;DHT22;26549;50.918;5.338;2024-02-21T11:07:05;12.20;99.90
40828;DHT22;26549;50.918;5.338;2024-02-21T11:09:32;12.20;99.90
40828;DHT22;26549;50.918;5.338;2024-02-21T11:12:03;12.30;99.90
40828;DHT22;26549;50.918;5.338;2024-02-21T11:14:33;12.30;99.90
40828;DHT22;26549;50.918;5.338;2024-02-21T11:17:02;12.30;99.90
40828;DHT22;26549;50.918;5.338;2024-02-21T11:19:29;12.30;99.90
40828;DHT22;26549;50.918;5.338;2024-02-21T11:21:59;12.50;99.90
40828;DHT22;26549;50.918;5.338;2024-02-21T11:24:29;12.50;99.90
40828;DHT22;26549;50.918;5.338;2024-02-21T11:29:46;12.50;99.90
40828;DHT22;26549;50.918;5.338;2024-02-21T11:32:17;12.60;99.90
40828;DHT22;26549;50.918;5.338;2024-02-21T11:35:00;12.60;99.90
40828;DHT22;26549;50.918;5.338;2024-02-21T11:37:34;12.70;99.90
40828;DHT22;26549;50.918;5.338;2024-02-21T11:40:03;12.70;99.90
40828;DHT22;26549;50.918;5.338;2024-02-21T11:42:30;12.80;99.90
40828;DHT22;26549;50.918;5.338;2024-02-21T11:44:56;12.80;99.90
40828;DHT22;26549;50.918;5.338;2024-02-21T11:47:23;12.80;99.90
40828;DHT22;26549;50.918;5.338;2024-02-21T11:49:49;13.00;99.90
40828;DHT22;26549;50.918;5.338;2024-02-21T11:52:22;13.00;99.90
40828;DHT22;26549;50.918;5.338;2024-02-21T11:54:51;12.90;99.90
40828;DHT22;26549;50.918;5.338;2024-02-21T11:57:17;12.90;99.90
40828;DHT22;26549;50.918;5.338;2024-02-21T11:59:45;13.00;99.90
40828;DHT22;26549;50.918;5.338;2024-02-21T12:02:12;13.00;99.90
40828;DHT22;26549;50.918;5.338;2024-02-21T12:04:38;13.20;99.90
40828;DHT22;26549;50.918;5.338;2024-02-21T12:07:04;13.10;99.90
40828;DHT22;26549;50.918;5.338;2024-02-21T12:09:31;13.10;99.90
40828;DHT22;26549;50.918;5.338;2024-02-21T12:12:04;12.90;99.90
40828;DHT22;26549;50.918;5.338;2024-02-21T12:14:32;13.00;99.90
40828;DHT22;26549;50.918;5.338;2024-02-21T12:17:00;13.10;99.90
40828;DHT22;26549;50.918;5.338;2024-02-21T12:19:29;12.90;99.90
40828;DHT22;26549;50.918;5.338;2024-02-21T12:21:55;12.90;99.90
40828;DHT22;26549;50.918;5.338;2024-02-21T12:24:25;13.00;99.90
40828;DHT22;26549;50.918;5.338;2024-02-21T12:26:56;13.00;99.90
40828;DHT22;26549;50.918;5.338;2024-02-21T12:29:24;13.00;99.90
40828;DHT22;26549;50.918;5.338;2024-02-21T12:31:52;13.00;99.90
40828;DHT22;26549;50.918;5.338;2024-02-21T12:34:19;13.10;99.90
40828;DHT22;26549;50.918;5.338;2024-02-21T12:36:45;13.10;99.90
40828;DHT22;26549;50.918;5.338;2024-02-21T12:39:14;13.20;99.90
40828;DHT22;26549;50.918;5.338;2024-02-21T12:41:40;13.10;99.90
40828;DHT22;26549;50.918;5.338;2024-02-21T12:44:07;13.00;99.90
40828;DHT22;26549;50.918;5.338;2024-02-21T12:46:34;13.00;99.90
40828;DHT22;26549;50.918;5.338;2024-02-21T12:49:01;13.00;99.90
40828;DHT22;26549;50.918;5.338;2024-02-21T12:51:28;12.90;99.90
40828;DHT22;26549;50.918;5.338;2024-02-21T12:53:54;12.80;99.90
40828;DHT22;26549;50.918;5.338;2024-02-21T12:56:20;12.70;99.90
40828;DHT22;26549;50.918;5.338;2024-02-21T12:58:45;12.70;99.90
40828;DHT22;26549;50.918;5.338;2024-02-21T13:01:11;12.80;99.90
40828;DHT22;26549;50.918;5.338;2024-02-21T13:03:37;12.70;99.90
40828;DHT22;26549;50.918;5.338;2024-02-21T13:06:04;12.70;99.90
40828;DHT22;26549;50.918;5.338;2024-02-21T13:08:31;12.80;99.90
40828;DHT22;26549;50.918;5.338;2024-02-21T13:10:57;12.70;99.90
40828;DHT22;26549;50.918;5.338;2024-02-21T13:13:22;12.80;99.90
40828;DHT22;26549;50.918;5.338;2024-02-21T13:15:49;12.90;99.90
40828;DHT22;26549;50.918;5.338;2024-02-21T13:18:15;12.80;99.90
40828;DHT22;26549;50.918;5.338;2024-02-21T13:20:41;12.80;99.90
40828;DHT22;26549;50.918;5.338;2024-02-21T13:23:06;12.90;99.90
40828;DHT22;26549;50.918;5.338;2024-02-21T13:25:33;13.10;99.90
40828;DHT22;26549;50.918;5.338;2024-02-21T13:27:59;13.00;99.90
40828;DHT22;26549;50.918;5.338;2024-02-21T13:30:24;12.90;99.90
40828;DHT22;26549;50.918;5.338;2024-02-21T13:32:51;12.90;99.90
40828;DHT22;26549;50.918;5.338;2024-02-21T13:35:17;12.90;99.90
40828;DHT22;26549;50.918;5.338;2024-02-21T13:37:43;12.90;99.90
40828;DHT22;26549;50.918;5.338;2024-02-21T13:40:09;12.90;99.90
40828;DHT22;26549;50.918;5.338;2024-02-21T13:42:36;13.00;99.90
40828;DHT22;26549;50.918;5.338;2024-02-21T13:45:02;13.00;99.90
40828;DHT22;26549;50.918;5.338;2024-02-21T13:47:28;13.10;99.90
40828;DHT22;26549;50.918;5.338;2024-02-21T13:49:55;13.10;99.90
40828;DHT22;26549;50.918;5.338;2024-02-21T13:52:21;13.00;99.90
40828;DHT22;26549;50.918;5.338;2024-02-21T13:54:48;13.00;99.90
40828;DHT22;26549;50.918;5.338;2024-02-21T13:57:14;12.90;99.90
40828;DHT22;26549;50.918;5.338;2024-02-21T13:59:40;12.90;99.90
40828;DHT22;26549;50.918;5.338;2024-02-21T14:02:07;12.80;99.90
40828;DHT22;26549;50.918;5.338;2024-02-21T14:04:35;12.80;99.90
40828;DHT22;26549;50.918;5.338;2024-02-21T14:07:01;12.80;99.90
40828;DHT22;26549;50.918;5.338;2024-02-21T14:09:27;12.70;99.90
40828;DHT22;26549;50.918;5.338;2024-02-21T14:11:55;12.80;99.90
40828;DHT22;26549;50.918;5.338;2024-02-21T14:14:21;12.80;99.90
40828;DHT22;26549;50.918;5.338;2024-02-21T14:16:46;12.70;99.90
40828;DHT22;26549;50.918;5.338;2024-02-21T14:19:15;12.70;99.90
40828;DHT22;26549;50.918;5.338;2024-02-21T14:21:41;12.80;99.90
40828;DHT22;26549;50.918;5.338;2024-02-21T14:24:07;12.70;99.90
40828;DHT22;26549;50.918;5.338;2024-02-21T14:26:33;12.80;99.90
40828;DHT22;26549;50.918;5.338;2024-02-21T14:28:59;12.90;99.90
40828;DHT22;26549;50.918;5.338;2024-02-21T14:31:25;12.80;99.90
40828;DHT22;26549;50.918;5.338;2024-02-21T14:33:51;12.80;99.90
40828;DHT22;26549;50.918;5.338;2024-02-21T14:36:17;12.80;99.90
40828;DHT22;26549;50.918;5.338;2024-02-21T14:38:44;12.80;99.90
40828;DHT22;26549;50.918;5.338;2024-02-21T14:41:11;12.80;99.90
40828;DHT22;26549;50.918;5.338;2024-02-21T14:43:39;12.80;99.90
40828;DHT22;26549;50.918;5.338;2024-02-21T14:46:05;12.80;99.90
40828;DHT22;26549;50.918;5.338;2024-02-21T14:48:34;12.80;99.90
40828;DHT22;26549;50.918;5.338;2024-02-21T14:51:01;12.80;99.90
40828;DHT22;26549;50.918;5.338;2024-02-21T14:53:27;12.80;99.90
40828;DHT22;26549;50.918;5.338;2024-02-21T14:55:54;12.70;99.90
40828;DHT22;26549;50.918;5.338;2024-02-21T14:58:20;12.80;99.90
40828;DHT22;26549;50.918;5.338;2024-02-21T15:00:46;12.70;99.90
40828;DHT22;26549;50.918;5.338;2024-02-21T15:03:13;12.70;99.90
40828;DHT22;26549;50.918;5.338;2024-02-21T15:05:41;12.50;99.90
40828;DHT22;26549;50.918;5.338;2024-02-21T15:08:07;12.50;99.90
40828;DHT22;26549;50.918;5.338;2024-02-21T15:10:35;12.40;99.90
40828;DHT22;26549;50.918;5.338;2024-02-21T15:13:01;12.30;99.90
40828;DHT22;26549;50.918;5.338;2024-02-21T15:15:29;12.20;99.90
40828;DHT22;26549;50.918;5.338;2024-02-21T15:17:55;12.20;99.90
40828;DHT22;26549;50.918;5.338;2024-02-21T15:20:21;12.10;99.90
40828;DHT22;26549;50.918;5.338;2024-02-21T15:22:46;11.90;99.90
40828;DHT22;26549;50.918;5.338;2024-02-21T15:25:12;11.90;99.90
40828;DHT22;26549;50.918;5.338;2024-02-21T15:27:43;12.00;99.90
40828;DHT22;26549;50.918;5.338;2024-02-21T15:30:10;12.00;99.90
40828;DHT22;26549;50.918;5.338;2024-02-21T15:32:36;11.90;99.90
40828;DHT22;26549;50.918;5.338;2024-02-21T15:35:06;11.90;99.90
40828;DHT22;26549;50.918;5.338;2024-02-21T15:37:35;11.80;99.90
40828;DHT22;26549;50.918;5.338;2024-02-21T15:40:00;11.60;99.90